CheckWX is a tool to help pilots better visualize weather data.  It is not intended as a substitute for an official pre-flight weather briefing.

00:53:04 UTC

ESNZ METAR
Östersund Airport
Östersund, Sweden
Current

33 mins ago

ESNZ 240020Z AUTO 28016KT 9999 SCT027/// M01/M04 Q1003
Observed
Mar-24 @ 00:20 UTC
Wind
  • 280° at 16 KTS
Visibility
10,000+ meters
Flight Rules
VFR
Cloud Levels
  • Scattered at 2,700' AGL
Temperature
-1°C / 30°F
Dewpoint
-4°C / 25°F
Humidity
80%
Altimeter
29.62" Hg
Pressure
1002.92 hPa
Previous

1 hour ago

ESNZ 232350Z AUTO 28015KT 9999 FEW010/// SCT028/// BKN038/// M01/M03 Q1003
Observed
Mar-23 @ 23:50 UTC
Wind
  • 280° at 15 KTS
Visibility
10,000+ meters
Flight Rules
VFR
Cloud Levels
  • Few at 1,000' AGL
  • Scattered at 2,800' AGL
  • Broken at 3,800' AGL
Temperature
-1°C / 30°F
Dewpoint
-3°C / 27°F
Humidity
86%
Altimeter
29.62" Hg
Pressure
1002.92 hPa
Previous

2 hours ago

ESNZ 232320Z AUTO 30020KT 5000 -SN FEW016/// SCT022/// M01/M03 Q1003
Observed
Mar-23 @ 23:20 UTC
Wind
  • 300° at 20 KTS
Visibility
5,005 meters
Flight Rules
MVFR
Conditions
Light Snow
Cloud Levels
  • Few at 1,600' AGL
  • Scattered at 2,200' AGL
Temperature
-1°C / 30°F
Dewpoint
-3°C / 27°F
Humidity
86%
Altimeter
29.62" Hg
Pressure
1002.92 hPa